sensor_id;sensor_type;location;lat;lon;timestamp;P1;durP1;ratioP1;P2;durP2;ratioP2
74371;SDS011;62885;51.374;6.170;2023-06-22T00:01:58;8.13;;;4.55;;
74371;SDS011;62885;51.374;6.170;2023-06-22T00:04:24;7.25;;;4.35;;
74371;SDS011;62885;51.374;6.170;2023-06-22T00:06:50;9.00;;;4.95;;
74371;SDS011;62885;51.374;6.170;2023-06-22T00:09:15;8.45;;;5.75;;
74371;SDS011;62885;51.374;6.170;2023-06-22T00:11:41;10.38;;;6.13;;
74371;SDS011;62885;51.374;6.170;2023-06-22T00:14:06;9.35;;;6.15;;
74371;SDS011;62885;51.374;6.170;2023-06-22T00:16:32;10.27;;;6.43;;
74371;SDS011;62885;51.374;6.170;2023-06-22T00:18:58;9.32;;;6.63;;
74371;SDS011;62885;51.374;6.170;2023-06-22T00:21:25;10.48;;;6.13;;
74371;SDS011;62885;51.374;6.170;2023-06-22T00:23:54;10.13;;;6.40;;
74371;SDS011;62885;51.374;6.170;2023-06-22T00:26:22;11.52;;;6.30;;
74371;SDS011;62885;51.374;6.170;2023-06-22T00:28:48;11.27;;;6.25;;
74371;SDS011;62885;51.374;6.170;2023-06-22T00:31:13;12.93;;;7.35;;
74371;SDS011;62885;51.374;6.170;2023-06-22T00:33:39;11.20;;;7.05;;
74371;SDS011;62885;51.374;6.170;2023-06-22T00:36:05;12.60;;;7.63;;
74371;SDS011;62885;51.374;6.170;2023-06-22T00:38:32;12.25;;;8.38;;
74371;SDS011;62885;51.374;6.170;2023-06-22T00:40:58;13.40;;;7.45;;
74371;SDS011;62885;51.374;6.170;2023-06-22T00:43:23;12.60;;;8.13;;
74371;SDS011;62885;51.374;6.170;2023-06-22T00:45:48;14.55;;;8.75;;
74371;SDS011;62885;51.374;6.170;2023-06-22T00:48:14;13.55;;;8.95;;
74371;SDS011;62885;51.374;6.170;2023-06-22T00:50:40;11.43;;;8.30;;
74371;SDS011;62885;51.374;6.170;2023-06-22T00:53:06;10.50;;;8.32;;
74371;SDS011;62885;51.374;6.170;2023-06-22T00:55:43;12.40;;;8.65;;
74371;SDS011;62885;51.374;6.170;2023-06-22T00:58:11;11.65;;;8.35;;
74371;SDS011;62885;51.374;6.170;2023-06-22T01:00:38;11.70;;;8.35;;
74371;SDS011;62885;51.374;6.170;2023-06-22T01:03:07;12.88;;;8.00;;
74371;SDS011;62885;51.374;6.170;2023-06-22T01:05:34;12.90;;;9.52;;
74371;SDS011;62885;51.374;6.170;2023-06-22T01:08:03;16.42;;;9.50;;
74371;SDS011;62885;51.374;6.170;2023-06-22T01:10:58;11.75;;;8.98;;
74371;SDS011;62885;51.374;6.170;2023-06-22T01:16:35;13.32;;;8.55;;
74371;SDS011;62885;51.374;6.170;2023-06-22T01:19:09;15.00;;;8.73;;
74371;SDS011;62885;51.374;6.170;2023-06-22T01:22:04;19.35;;;9.70;;
74371;SDS011;62885;51.374;6.170;2023-06-22T01:24:33;12.57;;;9.02;;
74371;SDS011;62885;51.374;6.170;2023-06-22T01:27:40;13.85;;;8.73;;
74371;SDS011;62885;51.374;6.170;2023-06-22T01:30:11;16.40;;;9.13;;
74371;SDS011;62885;51.374;6.170;2023-06-22T01:32:39;14.05;;;8.85;;
74371;SDS011;62885;51.374;6.170;2023-06-22T01:35:06;12.80;;;8.65;;
74371;SDS011;62885;51.374;6.170;2023-06-22T01:37:34;13.63;;;9.15;;
74371;SDS011;62885;51.374;6.170;2023-06-22T01:40:01;16.70;;;9.90;;
74371;SDS011;62885;51.374;6.170;2023-06-22T01:42:29;14.45;;;9.70;;
74371;SDS011;62885;51.374;6.170;2023-06-22T01:44:55;15.98;;;10.13;;
74371;SDS011;62885;51.374;6.170;2023-06-22T01:47:22;13.90;;;9.57;;
74371;SDS011;62885;51.374;6.170;2023-06-22T01:49:48;13.30;;;9.80;;
74371;SDS011;62885;51.374;6.170;2023-06-22T01:52:16;15.75;;;9.60;;
74371;SDS011;62885;51.374;6.170;2023-06-22T01:54:42;15.18;;;9.55;;
74371;SDS011;62885;51.374;6.170;2023-06-22T01:57:08;14.70;;;10.35;;
74371;SDS011;62885;51.374;6.170;2023-06-22T01:59:37;17.10;;;10.10;;
74371;SDS011;62885;51.374;6.170;2023-06-22T02:02:09;16.50;;;9.35;;
74371;SDS011;62885;51.374;6.170;2023-06-22T02:04:48;15.55;;;10.80;;
74371;SDS011;62885;51.374;6.170;2023-06-22T02:07:19;13.73;;;9.88;;
74371;SDS011;62885;51.374;6.170;2023-06-22T02:09:49;19.05;;;9.65;;
74371;SDS011;62885;51.374;6.170;2023-06-22T02:12:18;13.95;;;10.48;;
74371;SDS011;62885;51.374;6.170;2023-06-22T02:14:48;14.75;;;11.13;;
74371;SDS011;62885;51.374;6.170;2023-06-22T02:17:16;14.68;;;10.90;;
74371;SDS011;62885;51.374;6.170;2023-06-22T02:19:42;15.43;;;10.18;;
74371;SDS011;62885;51.374;6.170;2023-06-22T02:22:08;13.70;;;9.98;;
74371;SDS011;62885;51.374;6.170;2023-06-22T02:24:33;16.17;;;10.43;;
74371;SDS011;62885;51.374;6.170;2023-06-22T02:27:00;14.68;;;11.18;;
74371;SDS011;62885;51.374;6.170;2023-06-22T02:29:26;16.25;;;10.73;;
74371;SDS011;62885;51.374;6.170;2023-06-22T02:31:52;13.07;;;9.77;;
74371;SDS011;62885;51.374;6.170;2023-06-22T02:34:18;15.18;;;10.25;;
74371;SDS011;62885;51.374;6.170;2023-06-22T02:36:47;13.73;;;10.30;;
74371;SDS011;62885;51.374;6.170;2023-06-22T02:41:47;16.27;;;11.25;;
74371;SDS011;62885;51.374;6.170;2023-06-22T02:44:16;14.70;;;11.65;;
74371;SDS011;62885;51.374;6.170;2023-06-22T02:46:42;15.25;;;11.23;;
74371;SDS011;62885;51.374;6.170;2023-06-22T02:49:07;16.13;;;11.57;;
74371;SDS011;62885;51.374;6.170;2023-06-22T02:51:33;16.77;;;12.18;;
74371;SDS011;62885;51.374;6.170;2023-06-22T02:53:59;15.93;;;10.68;;
74371;SDS011;62885;51.374;6.170;2023-06-22T02:56:28;17.35;;;10.52;;
74371;SDS011;62885;51.374;6.170;2023-06-22T02:58:55;14.75;;;10.77;;
74371;SDS011;62885;51.374;6.170;2023-06-22T03:01:29;17.17;;;11.98;;
74371;SDS011;62885;51.374;6.170;2023-06-22T03:03:58;15.38;;;11.15;;
74371;SDS011;62885;51.374;6.170;2023-06-22T03:06:24;15.85;;;11.57;;
74371;SDS011;62885;51.374;6.170;2023-06-22T03:08:54;13.75;;;10.35;;
74371;SDS011;62885;51.374;6.170;2023-06-22T03:11:23;16.17;;;12.07;;
74371;SDS011;62885;51.374;6.170;2023-06-22T03:13:49;17.77;;;11.43;;
74371;SDS011;62885;51.374;6.170;2023-06-22T03:16:18;15.80;;;12.38;;
74371;SDS011;62885;51.374;6.170;2023-06-22T03:18:43;14.80;;;10.45;;
74371;SDS011;62885;51.374;6.170;2023-06-22T03:21:09;16.98;;;11.73;;
74371;SDS011;62885;51.374;6.170;2023-06-22T03:23:34;16.48;;;11.02;;
74371;SDS011;62885;51.374;6.170;2023-06-22T03:26:00;20.98;;;11.60;;
74371;SDS011;62885;51.374;6.170;2023-06-22T03:28:26;14.52;;;11.00;;
74371;SDS011;62885;51.374;6.170;2023-06-22T03:30:51;14.95;;;10.45;;
74371;SDS011;62885;51.374;6.170;2023-06-22T03:33:17;18.70;;;12.38;;
74371;SDS011;62885;51.374;6.170;2023-06-22T03:35:42;15.82;;;12.15;;
74371;SDS011;62885;51.374;6.170;2023-06-22T03:38:08;16.90;;;11.77;;
74371;SDS011;62885;51.374;6.170;2023-06-22T03:40:33;17.13;;;11.50;;
74371;SDS011;62885;51.374;6.170;2023-06-22T03:42:58;16.02;;;11.00;;
74371;SDS011;62885;51.374;6.170;2023-06-22T03:45:24;15.75;;;12.07;;
74371;SDS011;62885;51.374;6.170;2023-06-22T03:47:49;16.13;;;12.02;;
74371;SDS011;62885;51.374;6.170;2023-06-22T03:50:14;16.10;;;12.52;;
74371;SDS011;62885;51.374;6.170;2023-06-22T03:52:40;16.35;;;11.95;;
74371;SDS011;62885;51.374;6.170;2023-06-22T03:55:06;15.77;;;11.98;;
74371;SDS011;62885;51.374;6.170;2023-06-22T03:57:32;18.42;;;12.48;;
74371;SDS011;62885;51.374;6.170;2023-06-22T03:59:58;16.73;;;12.30;;
74371;SDS011;62885;51.374;6.170;2023-06-22T04:02:23;15.75;;;11.23;;
74371;SDS011;62885;51.374;6.170;2023-06-22T04:04:51;16.10;;;11.57;;
74371;SDS011;62885;51.374;6.170;2023-06-22T04:07:16;18.42;;;11.07;;
74371;SDS011;62885;51.374;6.170;2023-06-22T04:09:43;16.05;;;11.23;;
74371;SDS011;62885;51.374;6.170;2023-06-22T04:12:08;16.63;;;11.23;;
74371;SDS011;62885;51.374;6.170;2023-06-22T04:14:34;16.30;;;11.65;;
74371;SDS011;62885;51.374;6.170;2023-06-22T04:16:59;14.57;;;11.52;;
74371;SDS011;62885;51.374;6.170;2023-06-22T04:19:26;15.07;;;11.15;;
74371;SDS011;62885;51.374;6.170;2023-06-22T04:21:52;19.38;;;11.95;;
74371;SDS011;62885;51.374;6.170;2023-06-22T04:24:17;18.75;;;12.15;;
74371;SDS011;62885;51.374;6.170;2023-06-22T04:26:43;15.38;;;11.98;;
74371;SDS011;62885;51.374;6.170;2023-06-22T04:29:10;14.68;;;11.45;;
74371;SDS011;62885;51.374;6.170;2023-06-22T04:31:36;21.65;;;12.30;;
74371;SDS011;62885;51.374;6.170;2023-06-22T04:34:02;15.70;;;11.65;;
74371;SDS011;62885;51.374;6.170;2023-06-22T04:36:35;17.50;;;12.18;;
74371;SDS011;62885;51.374;6.170;2023-06-22T04:39:10;16.85;;;11.43;;
74371;SDS011;62885;51.374;6.170;2023-06-22T04:41:36;18.45;;;12.18;;
74371;SDS011;62885;51.374;6.170;2023-06-22T04:44:12;16.70;;;12.30;;
74371;SDS011;62885;51.374;6.170;2023-06-22T04:46:39;15.30;;;11.07;;
74371;SDS011;62885;51.374;6.170;2023-06-22T04:49:06;17.23;;;12.40;;
74371;SDS011;62885;51.374;6.170;2023-06-22T04:51:34;17.27;;;12.30;;
74371;SDS011;62885;51.374;6.170;2023-06-22T04:54:03;18.52;;;12.50;;
74371;SDS011;62885;51.374;6.170;2023-06-22T04:56:30;17.80;;;11.90;;
74371;SDS011;62885;51.374;6.170;2023-06-22T04:58:56;16.60;;;12.57;;
74371;SDS011;62885;51.374;6.170;2023-06-22T05:01:22;16.38;;;12.50;;
74371;SDS011;62885;51.374;6.170;2023-06-22T05:03:48;16.13;;;11.98;;
74371;SDS011;62885;51.374;6.170;2023-06-22T05:06:13;15.80;;;11.60;;
74371;SDS011;62885;51.374;6.170;2023-06-22T05:08:39;21.67;;;13.75;;
74371;SDS011;62885;51.374;6.170;2023-06-22T05:11:05;17.25;;;13.48;;
74371;SDS011;62885;51.374;6.170;2023-06-22T05:13:30;16.02;;;11.70;;
74371;SDS011;62885;51.374;6.170;2023-06-22T05:15:56;16.98;;;12.15;;
74371;SDS011;62885;51.374;6.170;2023-06-22T05:18:26;16.27;;;10.93;;
74371;SDS011;62885;51.374;6.170;2023-06-22T05:20:54;18.17;;;12.18;;
74371;SDS011;62885;51.374;6.170;2023-06-22T05:23:19;15.73;;;11.80;;
74371;SDS011;62885;51.374;6.170;2023-06-22T05:25:45;19.38;;;12.32;;
74371;SDS011;62885;51.374;6.170;2023-06-22T05:28:10;14.40;;;11.68;;
74371;SDS011;62885;51.374;6.170;2023-06-22T05:30:36;15.77;;;11.77;;
74371;SDS011;62885;51.374;6.170;2023-06-22T05:33:02;16.38;;;12.45;;
74371;SDS011;62885;51.374;6.170;2023-06-22T05:35:27;17.33;;;11.50;;
74371;SDS011;62885;51.374;6.170;2023-06-22T05:37:54;16.02;;;11.82;;
74371;SDS011;62885;51.374;6.170;2023-06-22T05:40:20;16.38;;;11.63;;
74371;SDS011;62885;51.374;6.170;2023-06-22T05:42:46;15.80;;;11.88;;
74371;SDS011;62885;51.374;6.170;2023-06-22T05:45:11;18.52;;;13.02;;
74371;SDS011;62885;51.374;6.170;2023-06-22T05:47:36;18.90;;;12.60;;
74371;SDS011;62885;51.374;6.170;2023-06-22T05:50:02;16.70;;;13.32;;
74371;SDS011;62885;51.374;6.170;2023-06-22T05:52:31;17.73;;;13.73;;
74371;SDS011;62885;51.374;6.170;2023-06-22T05:54:57;17.95;;;12.55;;
74371;SDS011;62885;51.374;6.170;2023-06-22T05:57:22;18.92;;;14.00;;
74371;SDS011;62885;51.374;6.170;2023-06-22T05:59:48;15.57;;;12.07;;
74371;SDS011;62885;51.374;6.170;2023-06-22T06:02:13;15.90;;;13.52;;
74371;SDS011;62885;51.374;6.170;2023-06-22T06:04:39;20.00;;;12.80;;
74371;SDS011;62885;51.374;6.170;2023-06-22T06:07:04;18.52;;;13.00;;
74371;SDS011;62885;51.374;6.170;2023-06-22T06:09:30;18.20;;;13.05;;
74371;SDS011;62885;51.374;6.170;2023-06-22T06:11:55;20.48;;;13.55;;
74371;SDS011;62885;51.374;6.170;2023-06-22T06:14:21;20.75;;;13.93;;
74371;SDS011;62885;51.374;6.170;2023-06-22T06:16:46;17.38;;;13.15;;
74371;SDS011;62885;51.374;6.170;2023-06-22T06:19:11;20.05;;;13.68;;
74371;SDS011;62885;51.374;6.170;2023-06-22T06:21:37;20.33;;;13.20;;
74371;SDS011;62885;51.374;6.170;2023-06-22T06:24:02;19.95;;;14.18;;
74371;SDS011;62885;51.374;6.170;2023-06-22T06:26:28;17.73;;;12.93;;
74371;SDS011;62885;51.374;6.170;2023-06-22T06:28:56;19.02;;;13.90;;
74371;SDS011;62885;51.374;6.170;2023-06-22T06:31:22;43.00;;;17.38;;
74371;SDS011;62885;51.374;6.170;2023-06-22T06:33:48;27.63;;;14.70;;
74371;SDS011;62885;51.374;6.170;2023-06-22T06:36:13;148.52;;;30.83;;
74371;SDS011;62885;51.374;6.170;2023-06-22T06:38:39;31.13;;;15.77;;
74371;SDS011;62885;51.374;6.170;2023-06-22T06:41:04;22.77;;;14.13;;
74371;SDS011;62885;51.374;6.170;2023-06-22T06:43:29;83.57;;;21.75;;
74371;SDS011;62885;51.374;6.170;2023-06-22T06:45:55;23.25;;;15.68;;
74371;SDS011;62885;51.374;6.170;2023-06-22T06:48:20;17.13;;;13.77;;
74371;SDS011;62885;51.374;6.170;2023-06-22T06:50:46;19.23;;;13.48;;
74371;SDS011;62885;51.374;6.170;2023-06-22T06:53:11;18.92;;;13.98;;
74371;SDS011;62885;51.374;6.170;2023-06-22T06:55:37;20.42;;;16.05;;
74371;SDS011;62885;51.374;6.170;2023-06-22T06:58:02;19.95;;;14.13;;
74371;SDS011;62885;51.374;6.170;2023-06-22T07:00:32;17.50;;;13.65;;
74371;SDS011;62885;51.374;6.170;2023-06-22T07:02:58;21.40;;;14.93;;
74371;SDS011;62885;51.374;6.170;2023-06-22T07:05:23;18.25;;;14.30;;
74371;SDS011;62885;51.374;6.170;2023-06-22T07:07:48;19.45;;;13.80;;
74371;SDS011;62885;51.374;6.170;2023-06-22T07:10:14;19.80;;;13.82;;
74371;SDS011;62885;51.374;6.170;2023-06-22T07:12:40;18.98;;;13.52;;
74371;SDS011;62885;51.374;6.170;2023-06-22T07:15:06;19.60;;;15.13;;
74371;SDS011;62885;51.374;6.170;2023-06-22T07:17:33;18.08;;;13.85;;
74371;SDS011;62885;51.374;6.170;2023-06-22T07:19:59;19.13;;;14.48;;
74371;SDS011;62885;51.374;6.170;2023-06-22T07:22:24;18.98;;;14.57;;
74371;SDS011;62885;51.374;6.170;2023-06-22T07:24:50;20.25;;;14.65;;
74371;SDS011;62885;51.374;6.170;2023-06-22T07:27:15;17.95;;;14.65;;
74371;SDS011;62885;51.374;6.170;2023-06-22T07:29:44;16.85;;;13.95;;
74371;SDS011;62885;51.374;6.170;2023-06-22T07:32:09;19.08;;;15.30;;
74371;SDS011;62885;51.374;6.170;2023-06-22T07:34:35;19.45;;;15.02;;
74371;SDS011;62885;51.374;6.170;2023-06-22T07:37:00;23.08;;;15.60;;
74371;SDS011;62885;51.374;6.170;2023-06-22T07:39:26;19.20;;;14.85;;
74371;SDS011;62885;51.374;6.170;2023-06-22T07:41:51;20.45;;;14.75;;
74371;SDS011;62885;51.374;6.170;2023-06-22T07:44:17;20.50;;;14.23;;
74371;SDS011;62885;51.374;6.170;2023-06-22T07:46:43;20.10;;;14.98;;
74371;SDS011;62885;51.374;6.170;2023-06-22T07:49:08;20.35;;;13.68;;
74371;SDS011;62885;51.374;6.170;2023-06-22T07:51:34;20.02;;;13.82;;
74371;SDS011;62885;51.374;6.170;2023-06-22T07:53:59;18.73;;;13.10;;
74371;SDS011;62885;51.374;6.170;2023-06-22T07:56:25;18.30;;;14.07;;
74371;SDS011;62885;51.374;6.170;2023-06-22T07:58:50;22.48;;;13.63;;
74371;SDS011;62885;51.374;6.170;2023-06-22T08:01:15;17.45;;;13.93;;
74371;SDS011;62885;51.374;6.170;2023-06-22T08:03:42;19.35;;;12.93;;
74371;SDS011;62885;51.374;6.170;2023-06-22T08:06:08;18.20;;;13.68;;
74371;SDS011;62885;51.374;6.170;2023-06-22T08:08:34;16.98;;;12.45;;
74371;SDS011;62885;51.374;6.170;2023-06-22T08:11:00;19.92;;;13.00;;
74371;SDS011;62885;51.374;6.170;2023-06-22T08:13:25;16.08;;;11.73;;
74371;SDS011;62885;51.374;6.170;2023-06-22T08:15:51;17.65;;;12.90;;
74371;SDS011;62885;51.374;6.170;2023-06-22T08:18:16;16.33;;;12.45;;
74371;SDS011;62885;51.374;6.170;2023-06-22T08:20:42;17.00;;;11.95;;
74371;SDS011;62885;51.374;6.170;2023-06-22T08:23:07;18.67;;;13.20;;
74371;SDS011;62885;51.374;6.170;2023-06-22T08:25:33;18.02;;;12.88;;
74371;SDS011;62885;51.374;6.170;2023-06-22T08:27:59;15.85;;;12.32;;
74371;SDS011;62885;51.374;6.170;2023-06-22T08:30:26;17.83;;;12.40;;
74371;SDS011;62885;51.374;6.170;2023-06-22T08:32:52;17.95;;;13.25;;
74371;SDS011;62885;51.374;6.170;2023-06-22T08:35:18;16.92;;;12.50;;
74371;SDS011;62885;51.374;6.170;2023-06-22T08:37:44;17.30;;;13.02;;
74371;SDS011;62885;51.374;6.170;2023-06-22T08:40:15;15.90;;;12.52;;
74371;SDS011;62885;51.374;6.170;2023-06-22T08:42:40;17.58;;;13.77;;
74371;SDS011;62885;51.374;6.170;2023-06-22T08:45:06;19.30;;;12.45;;
74371;SDS011;62885;51.374;6.170;2023-06-22T08:47:32;17.17;;;12.68;;
74371;SDS011;62885;51.374;6.170;2023-06-22T08:49:57;17.27;;;12.50;;
74371;SDS011;62885;51.374;6.170;2023-06-22T08:52:23;15.15;;;12.88;;
74371;SDS011;62885;51.374;6.170;2023-06-22T08:54:49;20.33;;;13.13;;
74371;SDS011;62885;51.374;6.170;2023-06-22T08:57:15;17.90;;;11.73;;
74371;SDS011;62885;51.374;6.170;2023-06-22T08:59:41;17.70;;;13.50;;
74371;SDS011;62885;51.374;6.170;2023-06-22T09:02:07;17.35;;;12.93;;
74371;SDS011;62885;51.374;6.170;2023-06-22T09:04:32;17.52;;;13.82;;
74371;SDS011;62885;51.374;6.170;2023-06-22T09:07:00;16.92;;;12.73;;
74371;SDS011;62885;51.374;6.170;2023-06-22T09:09:26;16.77;;;13.02;;
74371;SDS011;62885;51.374;6.170;2023-06-22T09:11:51;19.67;;;13.80;;
74371;SDS011;62885;51.374;6.170;2023-06-22T09:14:17;17.50;;;13.82;;
74371;SDS011;62885;51.374;6.170;2023-06-22T09:16:42;18.42;;;13.77;;
74371;SDS011;62885;51.374;6.170;2023-06-22T09:19:07;19.58;;;13.45;;
74371;SDS011;62885;51.374;6.170;2023-06-22T09:21:33;17.35;;;13.57;;
74371;SDS011;62885;51.374;6.170;2023-06-22T09:23:58;19.05;;;12.52;;
74371;SDS011;62885;51.374;6.170;2023-06-22T09:26:24;18.83;;;14.13;;
74371;SDS011;62885;51.374;6.170;2023-06-22T09:28:49;17.40;;;13.80;;
74371;SDS011;62885;51.374;6.170;2023-06-22T09:31:15;18.58;;;14.20;;
74371;SDS011;62885;51.374;6.170;2023-06-22T09:33:41;22.45;;;13.70;;
74371;SDS011;62885;51.374;6.170;2023-06-22T09:36:07;21.13;;;15.10;;
74371;SDS011;62885;51.374;6.170;2023-06-22T09:38:38;22.20;;;16.00;;
74371;SDS011;62885;51.374;6.170;2023-06-22T09:41:04;18.38;;;14.35;;
74371;SDS011;62885;51.374;6.170;2023-06-22T09:43:31;21.38;;;15.20;;
74371;SDS011;62885;51.374;6.170;2023-06-22T09:45:57;21.73;;;15.93;;
74371;SDS011;62885;51.374;6.170;2023-06-22T09:48:23;26.38;;;15.73;;
74371;SDS011;62885;51.374;6.170;2023-06-22T09:50:48;19.50;;;15.10;;
74371;SDS011;62885;51.374;6.170;2023-06-22T09:53:14;18.80;;;14.52;;
74371;SDS011;62885;51.374;6.170;2023-06-22T09:55:39;20.80;;;14.32;;
74371;SDS011;62885;51.374;6.170;2023-06-22T09:58:04;19.20;;;14.75;;
74371;SDS011;62885;51.374;6.170;2023-06-22T10:00:30;17.67;;;13.75;;
74371;SDS011;62885;51.374;6.170;2023-06-22T10:02:55;19.85;;;14.57;;
74371;SDS011;62885;51.374;6.170;2023-06-22T10:05:21;18.27;;;14.23;;
74371;SDS011;62885;51.374;6.170;2023-06-22T10:07:47;16.67;;;14.18;;
74371;SDS011;62885;51.374;6.170;2023-06-22T10:10:12;17.02;;;14.40;;
74371;SDS011;62885;51.374;6.170;2023-06-22T10:12:42;20.17;;;13.95;;
74371;SDS011;62885;51.374;6.170;2023-06-22T10:15:10;21.17;;;14.15;;
74371;SDS011;62885;51.374;6.170;2023-06-22T10:17:36;18.27;;;14.18;;
74371;SDS011;62885;51.374;6.170;2023-06-22T10:20:02;19.45;;;15.68;;
74371;SDS011;62885;51.374;6.170;2023-06-22T10:22:36;20.52;;;14.15;;
74371;SDS011;62885;51.374;6.170;2023-06-22T10:25:03;18.98;;;14.48;;
74371;SDS011;62885;51.374;6.170;2023-06-22T10:27:28;17.08;;;12.88;;
74371;SDS011;62885;51.374;6.170;2023-06-22T10:29:54;19.50;;;15.35;;
74371;SDS011;62885;51.374;6.170;2023-06-22T10:32:19;17.52;;;13.98;;
74371;SDS011;62885;51.374;6.170;2023-06-22T10:34:45;18.40;;;13.18;;
74371;SDS011;62885;51.374;6.170;2023-06-22T10:37:10;18.73;;;13.65;;
74371;SDS011;62885;51.374;6.170;2023-06-22T10:39:35;20.63;;;13.43;;
74371;SDS011;62885;51.374;6.170;2023-06-22T10:42:01;16.50;;;13.23;;
74371;SDS011;62885;51.374;6.170;2023-06-22T10:44:26;16.63;;;13.45;;
74371;SDS011;62885;51.374;6.170;2023-06-22T10:46:51;17.70;;;14.00;;
74371;SDS011;62885;51.374;6.170;2023-06-22T10:49:17;19.45;;;14.00;;
74371;SDS011;62885;51.374;6.170;2023-06-22T10:51:42;18.70;;;13.07;;
74371;SDS011;62885;51.374;6.170;2023-06-22T10:54:08;19.88;;;13.82;;
74371;SDS011;62885;51.374;6.170;2023-06-22T10:56:33;15.95;;;12.25;;
74371;SDS011;62885;51.374;6.170;2023-06-22T10:58:58;17.02;;;13.65;;
74371;SDS011;62885;51.374;6.170;2023-06-22T11:01:24;19.60;;;14.10;;
74371;SDS011;62885;51.374;6.170;2023-06-22T11:03:49;19.00;;;14.50;;
74371;SDS011;62885;51.374;6.170;2023-06-22T11:06:15;18.77;;;15.43;;
74371;SDS011;62885;51.374;6.170;2023-06-22T11:08:40;18.65;;;15.23;;
74371;SDS011;62885;51.374;6.170;2023-06-22T11:11:09;19.02;;;14.65;;
74371;SDS011;62885;51.374;6.170;2023-06-22T11:13:34;21.13;;;16.27;;
74371;SDS011;62885;51.374;6.170;2023-06-22T11:16:00;17.52;;;15.63;;
74371;SDS011;62885;51.374;6.170;2023-06-22T11:18:25;21.45;;;16.73;;
74371;SDS011;62885;51.374;6.170;2023-06-22T11:20:50;18.95;;;15.52;;
74371;SDS011;62885;51.374;6.170;2023-06-22T11:23:16;21.38;;;15.85;;
74371;SDS011;62885;51.374;6.170;2023-06-22T11:25:41;19.77;;;15.98;;
74371;SDS011;62885;51.374;6.170;2023-06-22T11:28:07;20.02;;;15.25;;
74371;SDS011;62885;51.374;6.170;2023-06-22T11:30:33;20.42;;;15.73;;
74371;SDS011;62885;51.374;6.170;2023-06-22T11:32:59;26.30;;;16.80;;
74371;SDS011;62885;51.374;6.170;2023-06-22T11:35:25;22.35;;;16.42;;
74371;SDS011;62885;51.374;6.170;2023-06-22T11:37:51;22.60;;;16.95;;
74371;SDS011;62885;51.374;6.170;2023-06-22T11:40:16;20.85;;;16.58;;
74371;SDS011;62885;51.374;6.170;2023-06-22T11:42:42;19.85;;;16.48;;
74371;SDS011;62885;51.374;6.170;2023-06-22T11:45:08;23.60;;;17.20;;
74371;SDS011;62885;51.374;6.170;2023-06-22T11:47:36;23.88;;;16.73;;
74371;SDS011;62885;51.374;6.170;2023-06-22T11:50:02;22.70;;;18.00;;
74371;SDS011;62885;51.374;6.170;2023-06-22T11:52:28;22.52;;;17.63;;
74371;SDS011;62885;51.374;6.170;2023-06-22T11:54:53;21.73;;;17.98;;
74371;SDS011;62885;51.374;6.170;2023-06-22T11:57:18;25.27;;;19.05;;
74371;SDS011;62885;51.374;6.170;2023-06-22T11:59:44;24.27;;;18.17;;
74371;SDS011;62885;51.374;6.170;2023-06-22T12:02:09;25.25;;;21.25;;
74371;SDS011;62885;51.374;6.170;2023-06-22T12:04:34;23.48;;;20.17;;
74371;SDS011;62885;51.374;6.170;2023-06-22T12:07:02;24.38;;;18.63;;
74371;SDS011;62885;51.374;6.170;2023-06-22T12:09:28;25.73;;;21.27;;
74371;SDS011;62885;51.374;6.170;2023-06-22T12:11:53;24.60;;;20.08;;
74371;SDS011;62885;51.374;6.170;2023-06-22T12:14:19;27.92;;;21.95;;
74371;SDS011;62885;51.374;6.170;2023-06-22T12:16:44;24.80;;;20.33;;
74371;SDS011;62885;51.374;6.170;2023-06-22T12:19:10;25.02;;;20.35;;
74371;SDS011;62885;51.374;6.170;2023-06-22T12:21:36;23.08;;;19.83;;
74371;SDS011;62885;51.374;6.170;2023-06-22T12:24:02;30.45;;;21.75;;
74371;SDS011;62885;51.374;6.170;2023-06-22T12:26:28;25.88;;;20.83;;
74371;SDS011;62885;51.374;6.170;2023-06-22T12:28:53;27.63;;;21.00;;
74371;SDS011;62885;51.374;6.170;2023-06-22T12:31:19;25.77;;;21.45;;
74371;SDS011;62885;51.374;6.170;2023-06-22T12:33:44;24.42;;;20.40;;
74371;SDS011;62885;51.374;6.170;2023-06-22T12:36:10;28.60;;;22.15;;
74371;SDS011;62885;51.374;6.170;2023-06-22T12:38:35;26.70;;;21.70;;
74371;SDS011;62885;51.374;6.170;2023-06-22T12:41:00;27.05;;;21.80;;
74371;SDS011;62885;51.374;6.170;2023-06-22T12:43:26;25.65;;;20.65;;
74371;SDS011;62885;51.374;6.170;2023-06-22T12:45:51;25.55;;;21.10;;
74371;SDS011;62885;51.374;6.170;2023-06-22T12:48:18;25.83;;;20.77;;
74371;SDS011;62885;51.374;6.170;2023-06-22T12:50:43;29.13;;;23.13;;
74371;SDS011;62885;51.374;6.170;2023-06-22T12:53:09;29.15;;;21.08;;
74371;SDS011;62885;51.374;6.170;2023-06-22T12:55:34;23.60;;;20.13;;
74371;SDS011;62885;51.374;6.170;2023-06-22T12:58:00;26.88;;;20.75;;
74371;SDS011;62885;51.374;6.170;2023-06-22T13:00:25;24.25;;;20.02;;
74371;SDS011;62885;51.374;6.170;2023-06-22T13:02:50;22.67;;;17.88;;
74371;SDS011;62885;51.374;6.170;2023-06-22T13:05:16;25.92;;;19.80;;
74371;SDS011;62885;51.374;6.170;2023-06-22T13:07:41;27.77;;;20.58;;
74371;SDS011;62885;51.374;6.170;2023-06-22T13:10:07;25.58;;;21.17;;
74371;SDS011;62885;51.374;6.170;2023-06-22T13:12:33;26.10;;;21.13;;
74371;SDS011;62885;51.374;6.170;2023-06-22T13:15:00;27.70;;;21.52;;
74371;SDS011;62885;51.374;6.170;2023-06-22T13:17:25;24.65;;;20.75;;
74371;SDS011;62885;51.374;6.170;2023-06-22T13:19:50;25.63;;;20.30;;
74371;SDS011;62885;51.374;6.170;2023-06-22T13:22:32;25.05;;;19.88;;
74371;SDS011;62885;51.374;6.170;2023-06-22T13:24:59;25.20;;;20.33;;
74371;SDS011;62885;51.374;6.170;2023-06-22T13:27:25;24.50;;;20.73;;
74371;SDS011;62885;51.374;6.170;2023-06-22T13:29:51;27.60;;;20.13;;
74371;SDS011;62885;51.374;6.170;2023-06-22T13:32:18;24.90;;;19.73;;
74371;SDS011;62885;51.374;6.170;2023-06-22T13:34:44;24.90;;;17.80;;
74371;SDS011;62885;51.374;6.170;2023-06-22T13:37:09;20.70;;;18.50;;
74371;SDS011;62885;51.374;6.170;2023-06-22T13:39:35;23.10;;;18.00;;
74371;SDS011;62885;51.374;6.170;2023-06-22T13:42:00;24.90;;;20.23;;
74371;SDS011;62885;51.374;6.170;2023-06-22T13:44:26;21.73;;;18.30;;
74371;SDS011;62885;51.374;6.170;2023-06-22T13:46:57;21.35;;;17.80;;
74371;SDS011;62885;51.374;6.170;2023-06-22T13:49:22;22.63;;;18.08;;
74371;SDS011;62885;51.374;6.170;2023-06-22T13:51:48;20.20;;;16.60;;
74371;SDS011;62885;51.374;6.170;2023-06-22T13:54:14;24.08;;;18.83;;
74371;SDS011;62885;51.374;6.170;2023-06-22T13:56:39;21.25;;;18.98;;
74371;SDS011;62885;51.374;6.170;2023-06-22T13:59:05;27.50;;;17.55;;
74371;SDS011;62885;51.374;6.170;2023-06-22T14:01:31;20.15;;;17.02;;
74371;SDS011;62885;51.374;6.170;2023-06-22T14:03:57;22.85;;;17.40;;
74371;SDS011;62885;51.374;6.170;2023-06-22T14:06:22;23.40;;;17.02;;
74371;SDS011;62885;51.374;6.170;2023-06-22T14:08:48;20.52;;;16.25;;
74371;SDS011;62885;51.374;6.170;2023-06-22T14:11:14;18.67;;;15.63;;
74371;SDS011;62885;51.374;6.170;2023-06-22T14:13:40;19.17;;;15.63;;
74371;SDS011;62885;51.374;6.170;2023-06-22T14:16:07;19.33;;;15.70;;
74371;SDS011;62885;51.374;6.170;2023-06-22T14:18:33;20.63;;;16.80;;
74371;SDS011;62885;51.374;6.170;2023-06-22T14:20:58;21.77;;;16.45;;
74371;SDS011;62885;51.374;6.170;2023-06-22T14:23:24;20.25;;;16.60;;
74371;SDS011;62885;51.374;6.170;2023-06-22T14:25:49;21.83;;;16.65;;